createdAt,value
2023-05-05T00:01:49.263Z,5.23
2023-05-05T00:04:18.095Z,5.07
2023-05-05T00:06:44.985Z,4.90
2023-05-05T00:09:11.773Z,4.60
2023-05-05T00:11:38.750Z,4.93
2023-05-05T00:14:05.659Z,4.90
2023-05-05T00:16:32.874Z,4.77
2023-05-05T00:18:59.385Z,4.80
2023-05-05T00:21:28.006Z,4.90
2023-05-05T00:23:54.617Z,4.50
2023-05-05T00:26:21.289Z,4.60
2023-05-05T00:28:48.188Z,5.00
2023-05-05T00:31:18.468Z,5.07
2023-05-05T00:33:47.271Z,5.00
2023-05-05T00:36:15.430Z,5.70
2023-05-05T00:38:42.367Z,5.57
2023-05-05T00:41:09.113Z,5.53
2023-05-05T00:43:36.318Z,5.10
2023-05-05T00:46:09.934Z,4.97
2023-05-05T00:48:36.375Z,4.60
2023-05-05T00:51:03.186Z,4.80
2023-05-05T00:53:29.896Z,4.90
2023-05-05T00:55:56.355Z,4.93
2023-05-05T00:58:23.334Z,5.07
2023-05-05T01:00:50.788Z,5.10
2023-05-05T01:03:17.437Z,4.80
2023-05-05T01:06:08.224Z,4.90
2023-05-05T01:08:54.058Z,4.90
2023-05-05T01:11:31.652Z,4.63
2023-05-05T01:14:14.610Z,4.70
2023-05-05T01:16:59.934Z,4.83
2023-05-05T01:19:56.780Z,5.00
2023-05-05T01:22:28.528Z,4.57
2023-05-05T01:25:04.365Z,5.10
2023-05-05T01:27:55.983Z,4.80
2023-05-05T01:30:34.895Z,5.20
2023-05-05T01:33:06.905Z,5.07
2023-05-05T01:35:42.615Z,4.90
2023-05-05T01:38:16.359Z,5.07
2023-05-05T01:40:48.959Z,5.07
2023-05-05T01:43:19.132Z,4.73
2023-05-05T01:45:47.942Z,4.90
2023-05-05T01:48:18.824Z,4.73
2023-05-05T01:50:48.373Z,4.80
2023-05-05T01:53:19.658Z,5.03
2023-05-05T01:55:48.845Z,5.10
2023-05-05T01:58:16.906Z,5.57
2023-05-05T02:00:44.862Z,5.57
2023-05-05T02:03:14.793Z,4.90
2023-05-05T02:05:43.155Z,5.10
2023-05-05T02:08:11.179Z,5.10
2023-05-05T02:10:41.344Z,5.47
2023-05-05T02:13:10.636Z,4.93
2023-05-05T02:15:38.350Z,5.67
2023-05-05T02:18:09.846Z,5.17
2023-05-05T02:20:38.682Z,5.27
2023-05-05T02:23:08.431Z,5.40
2023-05-05T02:25:42.343Z,5.40
2023-05-05T02:28:15.635Z,5.30
2023-05-05T02:30:44.598Z,5.43
2023-05-05T02:33:17.375Z,5.37
2023-05-05T02:35:46.043Z,5.13
2023-05-05T02:38:18.106Z,4.83
2023-05-05T02:40:47.433Z,4.77
2023-05-05T02:43:19.685Z,5.00
2023-05-05T02:45:46.394Z,5.00
2023-05-05T02:48:13.197Z,5.10
2023-05-05T02:50:39.979Z,5.50
2023-05-05T02:53:06.563Z,5.23
2023-05-05T02:55:54.681Z,5.33
2023-05-05T02:58:36.754Z,5.20
2023-05-05T03:01:16.434Z,4.93
2023-05-05T03:04:15.891Z,4.90
2023-05-05T03:06:48.023Z,5.17
2023-05-05T03:09:27.691Z,4.70
2023-05-05T03:12:02.434Z,4.97
2023-05-05T03:14:35.001Z,4.80
2023-05-05T03:17:03.740Z,5.20
2023-05-05T03:19:31.458Z,5.00
2023-05-05T03:21:58.365Z,5.13
2023-05-05T03:24:24.933Z,4.83
2023-05-05T03:26:51.737Z,4.83
2023-05-05T03:29:18.702Z,4.77
2023-05-05T03:31:45.270Z,4.57
2023-05-05T03:34:11.969Z,5.10
2023-05-05T03:36:38.952Z,6.30
2023-05-05T03:39:07.199Z,5.50
2023-05-05T03:41:34.491Z,5.17
2023-05-05T03:44:02.445Z,4.80
2023-05-05T03:46:29.604Z,4.60
2023-05-05T03:48:57.455Z,4.83
2023-05-05T03:51:24.802Z,5.23
2023-05-05T03:53:51.302Z,5.20
2023-05-05T03:56:18.010Z,5.07
2023-05-05T03:58:45.109Z,5.20
2023-05-05T04:01:12.329Z,5.23
2023-05-05T04:03:39.403Z,5.03
2023-05-05T04:06:06.140Z,5.10
2023-05-05T04:08:34.491Z,5.07
2023-05-05T04:11:02.825Z,4.90
2023-05-05T04:13:30.105Z,5.40
2023-05-05T04:15:57.785Z,5.20
2023-05-05T04:18:24.427Z,5.50
2023-05-05T04:20:53.365Z,5.03
2023-05-05T04:23:20.491Z,6.30
2023-05-05T04:25:47.581Z,5.63
2023-05-05T04:28:14.314Z,6.20
2023-05-05T04:30:40.983Z,5.97
2023-05-05T04:33:07.426Z,6.13
2023-05-05T04:35:34.223Z,5.70
2023-05-05T04:38:01.181Z,5.73
2023-05-05T04:40:27.582Z,5.57
2023-05-05T04:42:54.288Z,5.90
2023-05-05T04:45:21.209Z,5.87
2023-05-05T04:47:47.745Z,5.83
2023-05-05T04:50:14.498Z,7.00
2023-05-05T04:52:41.174Z,6.23
2023-05-05T04:55:11.774Z,6.67
2023-05-05T04:57:38.256Z,5.70
2023-05-05T05:00:05.487Z,9.60
2023-05-05T05:02:32.273Z,7.10
2023-05-05T05:04:59.267Z,6.77
2023-05-05T05:07:26.548Z,6.00
2023-05-05T05:09:53.253Z,6.50
2023-05-05T05:12:20.488Z,6.30
2023-05-05T05:14:47.208Z,6.00
2023-05-05T05:17:15.699Z,6.50
2023-05-05T05:19:42.198Z,7.27
2023-05-05T05:22:08.932Z,7.20
2023-05-05T05:24:36.399Z,7.97
2023-05-05T05:27:03.675Z,7.40
2023-05-05T05:29:32.323Z,8.00
2023-05-05T05:31:59.030Z,8.00
2023-05-05T05:34:26.083Z,8.27
2023-05-05T05:36:54.775Z,7.47
2023-05-05T05:39:22.192Z,7.40
2023-05-05T05:41:48.998Z,7.97
2023-05-05T05:44:15.414Z,7.73
2023-05-05T05:46:44.443Z,8.00
2023-05-05T05:49:11.507Z,7.83
2023-05-05T05:51:40.450Z,7.73
2023-05-05T05:54:06.964Z,7.63
2023-05-05T05:56:33.428Z,8.23
2023-05-05T05:59:01.668Z,8.03
2023-05-05T06:01:28.367Z,7.87
2023-05-05T06:03:54.924Z,8.27
2023-05-05T06:06:21.867Z,8.77
2023-05-05T06:08:48.395Z,7.93
2023-05-05T06:11:14.939Z,7.53
2023-05-05T06:13:41.982Z,8.63
2023-05-05T06:16:08.490Z,7.77
2023-05-05T06:18:37.326Z,8.07
2023-05-05T06:21:03.878Z,8.43
2023-05-05T06:23:30.381Z,9.00
2023-05-05T06:25:56.851Z,8.80
2023-05-05T06:28:23.544Z,8.53
2023-05-05T06:30:50.403Z,8.33
2023-05-05T06:33:17.172Z,8.60
2023-05-05T06:35:43.602Z,8.67
2023-05-05T06:38:10.041Z,8.03
2023-05-05T06:40:36.549Z,7.93
2023-05-05T06:43:03.253Z,8.37
2023-05-05T06:45:31.401Z,8.07
2023-05-05T06:47:58.371Z,8.23
2023-05-05T06:50:25.594Z,7.73
2023-05-05T06:52:53.349Z,7.37
2023-05-05T06:55:19.988Z,7.60
2023-05-05T06:57:46.454Z,7.93
2023-05-05T07:00:14.922Z,7.77
2023-05-05T07:02:43.487Z,7.80
2023-05-05T07:05:10.387Z,7.67
2023-05-05T07:07:37.314Z,7.17
2023-05-05T07:10:04.214Z,6.77
2023-05-05T07:12:31.457Z,7.55
2023-05-05T07:14:59.956Z,7.85
2023-05-05T07:17:27.275Z,8.70
2023-05-05T07:19:55.025Z,7.33
2023-05-05T07:22:22.488Z,7.70
2023-05-05T07:24:49.824Z,7.43
2023-05-05T07:27:17.557Z,7.53
2023-05-05T07:29:43.938Z,8.00
2023-05-05T07:32:10.765Z,7.95
2023-05-05T07:34:38.513Z,6.82
2023-05-05T07:37:05.184Z,7.90
2023-05-05T07:39:32.411Z,7.05
2023-05-05T07:41:58.983Z,6.93
2023-05-05T07:44:25.876Z,6.78
2023-05-05T07:46:53.066Z,6.68
2023-05-05T07:49:23.307Z,7.15
2023-05-05T07:51:50.302Z,7.75
2023-05-05T07:54:17.648Z,7.57
2023-05-05T07:56:44.148Z,7.38
2023-05-05T07:59:11.589Z,7.88
2023-05-05T08:01:39.633Z,7.55
2023-05-05T08:04:06.254Z,7.63
2023-05-05T08:06:33.107Z,7.85
2023-05-05T08:09:00.199Z,7.45
2023-05-05T08:11:29.025Z,7.28
2023-05-05T08:13:56.069Z,7.47
2023-05-05T08:16:22.541Z,7.93
2023-05-05T08:18:49.034Z,8.15
2023-05-05T08:21:15.465Z,7.88
2023-05-05T08:23:42.244Z,7.65
2023-05-05T08:26:09.757Z,7.65
2023-05-05T08:28:37.184Z,7.40
2023-05-05T08:31:07.189Z,8.13
2023-05-05T08:33:33.934Z,7.97
2023-05-05T08:36:00.491Z,8.25
2023-05-05T08:38:27.455Z,8.00
2023-05-05T08:40:54.235Z,8.00
2023-05-05T08:43:22.862Z,8.00
2023-05-05T08:45:52.165Z,7.63
2023-05-05T08:48:23.073Z,7.57
2023-05-05T08:50:59.978Z,7.93
2023-05-05T08:53:59.046Z,8.35
2023-05-05T08:56:47.244Z,7.30
2023-05-05T08:59:14.904Z,7.32
2023-05-05T09:01:41.982Z,7.90
2023-05-05T09:04:09.665Z,7.28
2023-05-05T09:06:37.542Z,7.57
2023-05-05T09:09:04.534Z,7.90
2023-05-05T09:11:32.293Z,8.50
2023-05-05T09:14:04.965Z,7.35
2023-05-05T09:16:31.868Z,7.40
2023-05-05T09:19:04.925Z,7.38
2023-05-05T09:21:32.054Z,7.88
2023-05-05T09:24:11.039Z,7.93
2023-05-05T09:26:45.828Z,7.47
2023-05-05T09:29:20.643Z,7.60
2023-05-05T09:32:08.838Z,7.82
2023-05-05T09:34:36.415Z,9.52
2023-05-05T09:37:03.447Z,8.02
2023-05-05T09:39:30.376Z,7.05
2023-05-05T09:41:57.543Z,8.52
2023-05-05T09:44:35.788Z,8.25
2023-05-05T09:47:07.197Z,8.30
2023-05-05T09:49:38.848Z,8.57
2023-05-05T09:52:16.464Z,8.13
2023-05-05T09:54:43.780Z,7.80
2023-05-05T09:57:33.172Z,7.57
2023-05-05T10:00:01.687Z,8.10
2023-05-05T10:02:34.937Z,7.88
2023-05-05T10:05:09.219Z,8.00
2023-05-05T10:07:38.892Z,7.50
2023-05-05T10:10:09.034Z,8.43
2023-05-05T10:12:40.120Z,7.60
2023-05-05T10:15:09.484Z,7.60
2023-05-05T10:17:41.383Z,8.23
2023-05-05T10:20:13.494Z,8.15
2023-05-05T10:22:45.677Z,7.60
2023-05-05T10:25:18.043Z,8.73
2023-05-05T10:27:46.928Z,8.52
2023-05-05T10:30:30.348Z,7.80
2023-05-05T10:33:38.755Z,7.63
2023-05-05T10:36:07.887Z,8.27
2023-05-05T10:38:36.384Z,8.57
2023-05-05T10:41:04.825Z,8.68
2023-05-05T10:43:32.133Z,7.95
2023-05-05T10:46:00.071Z,7.30
2023-05-05T10:48:40.177Z,8.32
2023-05-05T10:51:39.893Z,9.35
2023-05-05T10:54:18.516Z,8.10
2023-05-05T10:56:47.684Z,7.15
2023-05-05T10:59:40.447Z,8.95
2023-05-05T11:02:30.841Z,7.72
2023-05-05T11:05:08.748Z,8.75
2023-05-05T11:07:37.274Z,8.43
2023-05-05T11:10:06.353Z,8.40
2023-05-05T11:12:54.133Z,7.25
2023-05-05T11:15:26.892Z,7.80
2023-05-05T11:17:55.763Z,8.18
2023-05-05T11:20:39.681Z,6.93
2023-05-05T11:23:08.126Z,8.75
2023-05-05T11:25:40.819Z,8.35
2023-05-05T11:28:08.671Z,6.75
2023-05-05T11:30:56.134Z,8.00
2023-05-05T11:33:26.903Z,7.43
2023-05-05T11:36:04.246Z,7.50
2023-05-05T11:38:56.234Z,6.70
2023-05-05T11:41:44.532Z,6.60
2023-05-05T11:44:29.833Z,7.30
2023-05-05T11:47:01.352Z,7.22
2023-05-05T11:49:28.866Z,8.18
2023-05-05T11:52:03.837Z,7.55
2023-05-05T11:54:31.113Z,7.78
2023-05-05T11:57:02.082Z,7.07
2023-05-05T11:59:28.887Z,6.72
2023-05-05T12:01:55.634Z,7.80
2023-05-05T12:04:22.505Z,7.35
2023-05-05T12:06:49.783Z,7.97
2023-05-05T12:09:18.252Z,6.60
2023-05-05T12:11:50.933Z,6.43
2023-05-05T12:14:17.549Z,7.20
2023-05-05T12:17:09.953Z,7.40
2023-05-05T12:19:37.100Z,6.32
2023-05-05T12:22:06.426Z,7.00
2023-05-05T12:24:33.874Z,7.13
2023-05-05T12:27:11.582Z,6.80
2023-05-05T12:29:39.749Z,6.75
2023-05-05T12:32:06.568Z,6.68
2023-05-05T12:34:33.468Z,6.88
2023-05-05T12:37:01.588Z,5.35
2023-05-05T12:39:37.959Z,5.10
2023-05-05T12:42:06.472Z,6.10
2023-05-05T12:44:40.368Z,5.32
2023-05-05T12:47:08.302Z,6.50
2023-05-05T12:49:51.067Z,6.45
2023-05-05T12:52:19.145Z,6.63
2023-05-05T12:54:57.405Z,6.25
2023-05-05T12:57:25.048Z,6.20
2023-05-05T12:59:53.295Z,5.18
2023-05-05T13:02:21.059Z,5.50
2023-05-05T13:04:57.278Z,5.05
2023-05-05T13:07:24.217Z,5.10
2023-05-05T13:09:51.463Z,5.00
2023-05-05T13:12:18.929Z,5.30
2023-05-05T13:14:46.719Z,5.93
2023-05-05T13:17:14.647Z,5.63
2023-05-05T13:19:46.275Z,4.35
2023-05-05T13:22:16.914Z,4.40
2023-05-05T13:24:51.859Z,4.70
2023-05-05T13:27:21.138Z,5.10
2023-05-05T13:29:47.943Z,5.43
2023-05-05T13:32:14.572Z,4.65
2023-05-05T13:34:43.216Z,5.70
2023-05-05T13:37:10.971Z,6.10
2023-05-05T13:39:37.927Z,5.20
2023-05-05T13:42:04.702Z,5.63
2023-05-05T13:44:34.110Z,5.25
2023-05-05T13:47:01.040Z,4.97
2023-05-05T13:49:29.194Z,5.07
2023-05-05T13:51:56.270Z,4.80
2023-05-05T13:54:23.914Z,4.25
2023-05-05T13:56:50.700Z,4.13
2023-05-05T13:59:17.184Z,4.38
2023-05-05T14:01:43.965Z,4.40
2023-05-05T14:04:11.023Z,4.80
2023-05-05T14:06:37.832Z,4.90
2023-05-05T14:09:06.232Z,4.82
2023-05-05T14:11:32.945Z,4.50
2023-05-05T14:13:59.500Z,4.70
2023-05-05T14:16:26.252Z,4.18
2023-05-05T14:18:52.888Z,5.10
2023-05-05T14:21:19.350Z,4.80
2023-05-05T14:23:45.758Z,4.55
2023-05-05T14:26:12.520Z,4.75
2023-05-05T14:28:38.945Z,4.47
2023-05-05T14:31:05.414Z,4.70
2023-05-05T14:33:32.899Z,4.50
2023-05-05T14:36:00.531Z,4.30
2023-05-05T14:38:27.031Z,4.35
2023-05-05T14:40:53.698Z,3.90
2023-05-05T14:43:20.674Z,4.20
2023-05-05T14:45:47.292Z,4.75
2023-05-05T14:48:13.772Z,4.53
2023-05-05T14:50:42.655Z,4.70
2023-05-05T14:53:11.528Z,4.95
2023-05-05T14:55:39.545Z,4.22
2023-05-05T14:58:05.934Z,4.63
2023-05-05T15:00:32.441Z,4.43
2023-05-05T15:02:59.288Z,4.35
2023-05-05T15:05:25.835Z,4.70
2023-05-05T15:07:52.371Z,4.47
2023-05-05T15:10:21.863Z,4.22
2023-05-05T15:12:49.144Z,4.72
2023-05-05T15:15:15.667Z,4.50
2023-05-05T15:17:42.952Z,4.68
2023-05-05T15:20:11.447Z,4.85
2023-05-05T15:22:37.959Z,4.80
2023-05-05T15:25:07.013Z,4.07
2023-05-05T15:27:33.845Z,5.60
2023-05-05T15:30:00.817Z,4.70
2023-05-05T15:32:29.060Z,4.63
2023-05-05T15:34:56.327Z,5.35
2023-05-05T15:37:23.048Z,5.50
2023-05-05T15:39:49.478Z,5.28
2023-05-05T15:42:16.191Z,5.60
2023-05-05T15:44:43.140Z,4.60
2023-05-05T15:47:10.987Z,5.10
2023-05-05T15:49:37.428Z,5.18
2023-05-05T15:52:04.508Z,5.40
2023-05-05T15:54:31.768Z,5.50
2023-05-05T15:56:58.246Z,5.07
2023-05-05T15:59:26.286Z,4.90
2023-05-05T16:01:53.196Z,5.35
2023-05-05T16:04:20.368Z,4.95
2023-05-05T16:06:46.858Z,4.90
2023-05-05T16:09:14.336Z,4.88
2023-05-05T16:11:40.829Z,4.88
2023-05-05T16:14:07.541Z,4.50
2023-05-05T16:16:33.955Z,4.10
2023-05-05T16:19:01.113Z,4.22
2023-05-05T16:21:27.775Z,4.40
2023-05-05T16:23:54.326Z,4.10
2023-05-05T16:26:21.149Z,4.30
2023-05-05T16:28:47.851Z,4.47
2023-05-05T16:31:14.273Z,4.53
2023-05-05T16:33:43.829Z,4.40
2023-05-05T16:36:12.612Z,4.35
2023-05-05T16:38:40.856Z,4.00
2023-05-05T16:41:08.195Z,4.35
2023-05-05T16:43:37.378Z,4.50
2023-05-05T16:46:04.360Z,4.68
2023-05-05T16:48:30.903Z,4.50
2023-05-05T16:50:57.836Z,4.80
2023-05-05T16:53:24.592Z,4.43
2023-05-05T16:55:52.486Z,4.68
2023-05-05T16:58:20.381Z,4.43
2023-05-05T17:00:48.733Z,5.25
2023-05-05T17:03:16.574Z,4.43
2023-05-05T17:05:44.105Z,5.20
2023-05-05T17:08:17.251Z,4.28
2023-05-05T17:10:45.277Z,5.13
2023-05-05T17:13:13.292Z,5.30
2023-05-05T17:15:41.347Z,5.53
2023-05-05T17:18:08.912Z,5.10
2023-05-05T17:20:36.252Z,5.40
2023-05-05T17:23:03.227Z,5.40
2023-05-05T17:25:29.619Z,5.30
2023-05-05T17:27:56.186Z,5.15
2023-05-05T17:30:23.525Z,4.50
2023-05-05T17:32:50.278Z,5.00
2023-05-05T17:35:16.773Z,4.75
2023-05-05T17:37:43.840Z,4.70
2023-05-05T17:40:10.553Z,4.93
2023-05-05T17:42:38.508Z,5.00
2023-05-05T17:45:08.085Z,4.78
2023-05-05T17:47:35.125Z,4.70
2023-05-05T17:50:03.369Z,4.85
2023-05-05T17:52:29.942Z,4.75
2023-05-05T17:54:56.827Z,4.60
2023-05-05T17:57:23.345Z,4.65
2023-05-05T17:59:50.087Z,4.63
2023-05-05T18:02:16.579Z,4.53
2023-05-05T18:04:43.437Z,4.70
2023-05-05T18:07:11.903Z,4.88
2023-05-05T18:09:39.078Z,4.90
2023-05-05T18:12:06.240Z,5.03
2023-05-05T18:14:32.704Z,4.65
2023-05-05T18:16:59.401Z,4.90
2023-05-05T18:19:25.791Z,5.03
2023-05-05T18:21:54.359Z,4.60
2023-05-05T18:24:21.153Z,4.90
2023-05-05T18:26:51.992Z,5.00
2023-05-05T18:29:19.765Z,5.68
2023-05-05T18:31:48.736Z,5.43
2023-05-05T18:34:16.798Z,5.25
2023-05-05T18:36:44.697Z,5.35
2023-05-05T18:39:11.438Z,4.97
2023-05-05T18:41:38.007Z,6.05
2023-05-05T18:44:04.438Z,5.30
2023-05-05T18:46:31.435Z,5.55
2023-05-05T18:48:58.124Z,5.30
2023-05-05T18:51:24.640Z,5.75
2023-05-05T18:53:51.124Z,5.03
2023-05-05T18:56:17.656Z,5.88
2023-05-05T18:58:46.919Z,5.30
2023-05-05T19:01:13.475Z,5.50
2023-05-05T19:03:40.049Z,6.05
2023-05-05T19:06:07.054Z,5.40
2023-05-05T19:08:34.957Z,5.85
2023-05-05T19:11:01.398Z,6.30
2023-05-05T19:13:27.965Z,6.03
2023-05-05T19:15:57.018Z,6.93
2023-05-05T19:18:25.188Z,6.38
2023-05-05T19:20:53.184Z,6.63
2023-05-05T19:23:20.484Z,6.40
2023-05-05T19:25:46.934Z,7.70
2023-05-05T19:28:13.444Z,6.22
2023-05-05T19:30:42.288Z,6.53
2023-05-05T19:33:08.956Z,7.68
2023-05-05T19:35:37.631Z,7.32
2023-05-05T19:38:04.052Z,7.70
2023-05-05T19:40:37.975Z,6.10
2023-05-05T19:43:04.969Z,8.57
2023-05-05T19:45:32.149Z,7.68
2023-05-05T19:47:58.723Z,7.85
2023-05-05T19:50:26.784Z,8.77
2023-05-05T19:52:54.639Z,8.98
2023-05-05T19:55:22.040Z,8.35
2023-05-05T19:57:48.735Z,8.13
2023-05-05T20:00:15.398Z,8.00
2023-05-05T20:02:42.289Z,7.43
2023-05-05T20:05:09.269Z,7.78
2023-05-05T20:07:35.872Z,7.38
2023-05-05T20:10:02.336Z,7.57
2023-05-05T20:12:28.795Z,8.45
2023-05-05T20:14:55.533Z,8.32
2023-05-05T20:17:22.255Z,9.55
2023-05-05T20:19:49.040Z,8.05
2023-05-05T20:22:15.548Z,8.05
2023-05-05T20:24:42.275Z,9.18
2023-05-05T20:27:08.875Z,9.05
2023-05-05T20:29:35.690Z,9.30
2023-05-05T20:32:02.121Z,10.30
2023-05-05T20:34:28.630Z,9.02
2023-05-05T20:36:55.096Z,10.35
2023-05-05T20:39:21.575Z,9.07
2023-05-05T20:41:48.861Z,8.68
2023-05-05T20:44:15.632Z,9.45
2023-05-05T20:46:43.220Z,9.40
2023-05-05T20:49:10.399Z,9.75
2023-05-05T20:51:36.869Z,9.93
2023-05-05T20:54:03.605Z,9.27
2023-05-05T20:56:30.023Z,8.38
2023-05-05T20:58:56.840Z,8.57
2023-05-05T21:01:24.113Z,9.27
2023-05-05T21:03:50.861Z,9.98
2023-05-05T21:06:19.943Z,10.60
2023-05-05T21:08:47.177Z,9.55
2023-05-05T21:11:13.959Z,10.73
2023-05-05T21:13:40.688Z,9.23
2023-05-05T21:16:09.350Z,8.85
2023-05-05T21:18:36.078Z,9.95
2023-05-05T21:21:02.832Z,9.13
2023-05-05T21:23:30.340Z,8.93
2023-05-05T21:25:56.798Z,10.20
2023-05-05T21:28:23.519Z,7.82
2023-05-05T21:31:10.396Z,8.52
2023-05-05T21:33:37.859Z,7.53
2023-05-05T21:36:06.610Z,9.38
2023-05-05T21:38:33.359Z,8.90
2023-05-05T21:41:00.045Z,8.53
2023-05-05T21:43:29.712Z,7.03
2023-05-05T21:46:04.878Z,7.30
2023-05-05T21:48:31.798Z,8.10
2023-05-05T21:50:58.255Z,7.60
2023-05-05T21:53:24.895Z,8.67
2023-05-05T21:55:51.668Z,7.78
2023-05-05T21:58:18.318Z,8.75
2023-05-05T22:00:45.049Z,8.35
2023-05-05T22:03:12.454Z,8.77
2023-05-05T22:05:38.945Z,8.15
2023-05-05T22:08:05.683Z,8.32
2023-05-05T22:10:32.429Z,8.93
2023-05-05T22:12:59.310Z,8.90
2023-05-05T22:15:32.620Z,8.15
2023-05-05T22:18:02.442Z,7.80
2023-05-05T22:20:29.434Z,8.02
2023-05-05T22:22:56.140Z,9.45
2023-05-05T22:25:23.425Z,9.73
2023-05-05T22:27:49.830Z,9.27
2023-05-05T22:30:16.291Z,11.93
2023-05-05T22:32:43.561Z,9.60
2023-05-05T22:35:10.926Z,8.90
2023-05-05T22:37:38.057Z,9.70
2023-05-05T22:40:05.284Z,9.05
2023-05-05T22:42:33.978Z,9.13
2023-05-05T22:45:01.348Z,8.82
2023-05-05T22:47:28.112Z,9.52
2023-05-05T22:49:54.762Z,10.00
2023-05-05T22:52:21.669Z,9.63
2023-05-05T22:54:48.160Z,9.23
2023-05-05T22:57:14.749Z,9.63
2023-05-05T22:59:41.139Z,9.82
2023-05-05T23:02:07.916Z,8.80
2023-05-05T23:04:34.686Z,8.80
2023-05-05T23:07:01.505Z,8.32
2023-05-05T23:09:28.851Z,9.00
2023-05-05T23:11:55.673Z,8.90
2023-05-05T23:14:22.576Z,9.15
2023-05-05T23:16:49.088Z,10.05
2023-05-05T23:19:15.547Z,10.27
2023-05-05T23:21:52.732Z,9.00
2023-05-05T23:24:20.911Z,10.25
2023-05-05T23:26:49.740Z,8.57
2023-05-05T23:29:16.395Z,8.80
2023-05-05T23:31:43.438Z,7.85
2023-05-05T23:34:11.281Z,8.93
2023-05-05T23:36:37.716Z,8.32
2023-05-05T23:39:04.538Z,7.40
2023-05-05T23:41:32.283Z,7.57
2023-05-05T23:43:59.978Z,8.00
2023-05-05T23:46:27.609Z,8.18
2023-05-05T23:48:54.595Z,7.60
2023-05-05T23:51:22.097Z,7.28
2023-05-05T23:53:49.908Z,8.23
2023-05-05T23:56:18.941Z,8.10
2023-05-05T23:58:45.519Z,9.35
